sensor_id;sensor_type;location;lat;lon;timestamp;pressure;altitude;pressure_sealevel;temperature;humidity
28448;BME280;15675;52.870;-1.416;2023-07-30T00:00:43;100038.47;;;16.80;96.61
28448;BME280;15675;52.870;-1.416;2023-07-30T00:03:09;100041.78;;;17.12;95.06
28448;BME280;15675;52.870;-1.416;2023-07-30T00:05:34;100042.25;;;16.98;95.26
28448;BME280;15675;52.870;-1.416;2023-07-30T00:08:00;100035.59;;;16.88;95.85
28448;BME280;15675;52.870;-1.416;2023-07-30T00:10:26;100030.53;;;16.82;96.24
28448;BME280;15675;52.870;-1.416;2023-07-30T00:12:51;100034.41;;;16.70;96.89
28448;BME280;15675;52.870;-1.416;2023-07-30T00:15:17;100027.41;;;16.70;98.75
28448;BME280;15675;52.870;-1.416;2023-07-30T00:17:43;100029.56;;;16.58;99.15
28448;BME280;15675;52.870;-1.416;2023-07-30T00:20:09;100030.81;;;16.46;100.00
28448;BME280;15675;52.870;-1.416;2023-07-30T00:22:34;100028.50;;;16.36;100.00
28448;BME280;15675;52.870;-1.416;2023-07-30T00:25:00;100031.69;;;16.46;100.00
28448;BME280;15675;52.870;-1.416;2023-07-30T00:27:25;100029.09;;;16.71;100.00
28448;BME280;15675;52.870;-1.416;2023-07-30T00:29:51;100027.75;;;16.60;100.00
28448;BME280;15675;52.870;-1.416;2023-07-30T00:32:17;100026.22;;;16.52;100.00
28448;BME280;15675;52.870;-1.416;2023-07-30T00:34:43;100035.34;;;16.67;100.00
28448;BME280;15675;52.870;-1.416;2023-07-30T00:37:09;100032.72;;;16.67;100.00
28448;BME280;15675;52.870;-1.416;2023-07-30T00:39:35;100023.97;;;16.68;100.00
28448;BME280;15675;52.870;-1.416;2023-07-30T00:42:00;100027.81;;;16.85;100.00
28448;BME280;15675;52.870;-1.416;2023-07-30T00:44:26;100030.63;;;16.52;100.00
28448;BME280;15675;52.870;-1.416;2023-07-30T00:46:52;100031.28;;;16.59;100.00
28448;BME280;15675;52.870;-1.416;2023-07-30T00:49:18;100037.34;;;16.61;100.00
28448;BME280;15675;52.870;-1.416;2023-07-30T00:51:44;100030.22;;;16.37;100.00
28448;BME280;15675;52.870;-1.416;2023-07-30T00:54:12;100024.41;;;16.54;100.00
28448;BME280;15675;52.870;-1.416;2023-07-30T00:56:41;100017.75;;;16.44;100.00
28448;BME280;15675;52.870;-1.416;2023-07-30T00:59:12;100015.97;;;16.46;100.00
28448;BME280;15675;52.870;-1.416;2023-07-30T01:01:41;100014.56;;;16.34;100.00
28448;BME280;15675;52.870;-1.416;2023-07-30T01:04:08;100016.03;;;16.43;100.00
28448;BME280;15675;52.870;-1.416;2023-07-30T01:06:34;100006.13;;;16.26;100.00
28448;BME280;15675;52.870;-1.416;2023-07-30T01:09:01;100016.19;;;16.10;100.00
28448;BME280;15675;52.870;-1.416;2023-07-30T01:11:27;100005.00;;;16.05;100.00
28448;BME280;15675;52.870;-1.416;2023-07-30T01:13:54;100023.81;;;16.18;100.00
28448;BME280;15675;52.870;-1.416;2023-07-30T01:16:20;100026.59;;;16.13;100.00
28448;BME280;15675;52.870;-1.416;2023-07-30T01:18:45;100020.06;;;16.27;100.00
28448;BME280;15675;52.870;-1.416;2023-07-30T01:21:12;100027.19;;;16.21;100.00
28448;BME280;15675;52.870;-1.416;2023-07-30T01:23:38;100030.03;;;16.14;100.00
28448;BME280;15675;52.870;-1.416;2023-07-30T01:26:08;100030.88;;;16.14;100.00
28448;BME280;15675;52.870;-1.416;2023-07-30T01:28:37;100031.03;;;16.10;100.00
28448;BME280;15675;52.870;-1.416;2023-07-30T01:31:06;100029.22;;;16.12;100.00
28448;BME280;15675;52.870;-1.416;2023-07-30T01:33:32;100033.22;;;15.95;100.00
28448;BME280;15675;52.870;-1.416;2023-07-30T01:35:59;100027.94;;;15.97;100.00
28448;BME280;15675;52.870;-1.416;2023-07-30T01:38:26;100046.50;;;16.17;100.00
28448;BME280;15675;52.870;-1.416;2023-07-30T01:40:52;100036.69;;;15.96;100.00
28448;BME280;15675;52.870;-1.416;2023-07-30T01:43:18;100037.94;;;15.82;100.00
28448;BME280;15675;52.870;-1.416;2023-07-30T01:45:44;100035.69;;;16.00;100.00
28448;BME280;15675;52.870;-1.416;2023-07-30T01:48:10;100033.66;;;15.80;100.00
28448;BME280;15675;52.870;-1.416;2023-07-30T01:50:36;100036.25;;;15.80;100.00
28448;BME280;15675;52.870;-1.416;2023-07-30T01:53:01;100035.22;;;15.85;100.00
28448;BME280;15675;52.870;-1.416;2023-07-30T01:55:27;100033.75;;;16.07;100.00
28448;BME280;15675;52.870;-1.416;2023-07-30T01:57:52;100029.94;;;16.17;100.00
28448;BME280;15675;52.870;-1.416;2023-07-30T02:00:20;100032.16;;;16.01;100.00
28448;BME280;15675;52.870;-1.416;2023-07-30T02:02:46;100026.28;;;16.22;100.00
28448;BME280;15675;52.870;-1.416;2023-07-30T02:05:11;100045.50;;;16.21;100.00
28448;BME280;15675;52.870;-1.416;2023-07-30T02:07:37;100043.09;;;16.15;100.00
28448;BME280;15675;52.870;-1.416;2023-07-30T02:10:03;100042.78;;;15.96;100.00
28448;BME280;15675;52.870;-1.416;2023-07-30T02:12:28;100054.66;;;16.08;100.00
28448;BME280;15675;52.870;-1.416;2023-07-30T02:14:54;100053.75;;;16.09;100.00
28448;BME280;15675;52.870;-1.416;2023-07-30T02:17:20;100058.59;;;16.21;100.00
28448;BME280;15675;52.870;-1.416;2023-07-30T02:19:46;100049.84;;;15.93;100.00
28448;BME280;15675;52.870;-1.416;2023-07-30T02:22:12;100044.97;;;15.80;100.00
28448;BME280;15675;52.870;-1.416;2023-07-30T02:24:39;100032.81;;;15.79;100.00
28448;BME280;15675;52.870;-1.416;2023-07-30T02:27:05;100042.72;;;15.66;100.00
28448;BME280;15675;52.870;-1.416;2023-07-30T02:29:30;100043.28;;;16.09;100.00
28448;BME280;15675;52.870;-1.416;2023-07-30T02:31:56;100037.66;;;15.92;100.00
28448;BME280;15675;52.870;-1.416;2023-07-30T02:34:22;100032.66;;;15.84;100.00
28448;BME280;15675;52.870;-1.416;2023-07-30T02:36:48;100034.94;;;15.96;100.00
28448;BME280;15675;52.870;-1.416;2023-07-30T02:39:14;100038.66;;;16.17;100.00
28448;BME280;15675;52.870;-1.416;2023-07-30T02:41:39;100046.94;;;15.72;100.00
28448;BME280;15675;52.870;-1.416;2023-07-30T02:44:05;100043.59;;;15.98;100.00
28448;BME280;15675;52.870;-1.416;2023-07-30T02:46:31;100039.78;;;15.77;100.00
28448;BME280;15675;52.870;-1.416;2023-07-30T02:48:56;100042.13;;;16.18;100.00
28448;BME280;15675;52.870;-1.416;2023-07-30T02:51:22;100037.00;;;15.85;100.00
28448;BME280;15675;52.870;-1.416;2023-07-30T02:53:51;100039.88;;;15.74;100.00
28448;BME280;15675;52.870;-1.416;2023-07-30T02:56:17;100041.94;;;15.63;100.00
28448;BME280;15675;52.870;-1.416;2023-07-30T02:58:44;100043.66;;;15.64;100.00
28448;BME280;15675;52.870;-1.416;2023-07-30T03:01:09;100035.75;;;15.34;100.00
28448;BME280;15675;52.870;-1.416;2023-07-30T03:03:35;100038.00;;;15.48;100.00
28448;BME280;15675;52.870;-1.416;2023-07-30T03:06:00;100037.69;;;15.59;100.00
28448;BME280;15675;52.870;-1.416;2023-07-30T03:08:26;100038.09;;;15.75;100.00
28448;BME280;15675;52.870;-1.416;2023-07-30T03:10:51;100031.66;;;15.57;100.00
28448;BME280;15675;52.870;-1.416;2023-07-30T03:13:17;100040.06;;;15.68;100.00
28448;BME280;15675;52.870;-1.416;2023-07-30T03:15:43;100039.72;;;15.82;100.00
28448;BME280;15675;52.870;-1.416;2023-07-30T03:18:11;100039.31;;;15.63;100.00
28448;BME280;15675;52.870;-1.416;2023-07-30T03:20:37;100038.69;;;15.54;100.00
28448;BME280;15675;52.870;-1.416;2023-07-30T03:23:02;100031.22;;;15.72;100.00
28448;BME280;15675;52.870;-1.416;2023-07-30T03:25:28;100045.63;;;15.56;100.00
28448;BME280;15675;52.870;-1.416;2023-07-30T03:27:53;100047.47;;;15.85;100.00
28448;BME280;15675;52.870;-1.416;2023-07-30T03:30:19;100048.63;;;15.73;100.00
28448;BME280;15675;52.870;-1.416;2023-07-30T03:32:44;100047.91;;;15.68;100.00
28448;BME280;15675;52.870;-1.416;2023-07-30T03:35:10;100042.50;;;15.74;100.00
28448;BME280;15675;52.870;-1.416;2023-07-30T03:37:35;100047.88;;;15.69;100.00
28448;BME280;15675;52.870;-1.416;2023-07-30T03:40:01;100044.22;;;15.75;100.00
28448;BME280;15675;52.870;-1.416;2023-07-30T03:42:27;100054.13;;;15.64;100.00
28448;BME280;15675;52.870;-1.416;2023-07-30T03:44:53;100055.28;;;15.86;100.00
28448;BME280;15675;52.870;-1.416;2023-07-30T03:47:18;100056.91;;;15.91;100.00
28448;BME280;15675;52.870;-1.416;2023-07-30T03:49:44;100051.72;;;15.87;100.00
28448;BME280;15675;52.870;-1.416;2023-07-30T03:52:09;100040.06;;;15.68;100.00
28448;BME280;15675;52.870;-1.416;2023-07-30T03:54:35;100045.50;;;15.60;100.00
28448;BME280;15675;52.870;-1.416;2023-07-30T03:57:01;100040.81;;;15.40;100.00
28448;BME280;15675;52.870;-1.416;2023-07-30T03:59:26;100049.53;;;15.72;100.00
28448;BME280;15675;52.870;-1.416;2023-07-30T04:01:53;100041.91;;;15.64;100.00
28448;BME280;15675;52.870;-1.416;2023-07-30T04:04:19;100043.34;;;15.43;100.00
28448;BME280;15675;52.870;-1.416;2023-07-30T04:06:45;100042.63;;;15.69;100.00
28448;BME280;15675;52.870;-1.416;2023-07-30T04:09:11;100040.13;;;15.33;100.00
28448;BME280;15675;52.870;-1.416;2023-07-30T04:11:36;100043.38;;;15.42;100.00
28448;BME280;15675;52.870;-1.416;2023-07-30T04:14:02;100040.44;;;15.21;100.00
28448;BME280;15675;52.870;-1.416;2023-07-30T04:16:30;100045.19;;;15.40;100.00
28448;BME280;15675;52.870;-1.416;2023-07-30T04:18:56;100044.75;;;15.24;100.00
28448;BME280;15675;52.870;-1.416;2023-07-30T04:21:21;100048.56;;;15.43;100.00
28448;BME280;15675;52.870;-1.416;2023-07-30T04:23:47;100046.56;;;15.20;100.00
28448;BME280;15675;52.870;-1.416;2023-07-30T04:26:13;100057.38;;;15.41;100.00
28448;BME280;15675;52.870;-1.416;2023-07-30T04:28:38;100060.09;;;15.36;100.00
28448;BME280;15675;52.870;-1.416;2023-07-30T04:31:04;100065.25;;;15.39;100.00
28448;BME280;15675;52.870;-1.416;2023-07-30T04:33:30;100055.25;;;15.22;100.00
28448;BME280;15675;52.870;-1.416;2023-07-30T04:35:55;100051.25;;;15.07;100.00
28448;BME280;15675;52.870;-1.416;2023-07-30T04:38:21;100054.44;;;15.18;100.00
28448;BME280;15675;52.870;-1.416;2023-07-30T04:40:46;100053.59;;;15.18;100.00
28448;BME280;15675;52.870;-1.416;2023-07-30T04:43:12;100064.66;;;15.29;100.00
28448;BME280;15675;52.870;-1.416;2023-07-30T04:45:37;100069.34;;;15.16;100.00
28448;BME280;15675;52.870;-1.416;2023-07-30T04:48:03;100063.47;;;15.07;100.00
28448;BME280;15675;52.870;-1.416;2023-07-30T04:50:29;100067.69;;;15.12;100.00
28448;BME280;15675;52.870;-1.416;2023-07-30T04:52:54;100063.69;;;14.97;100.00
28448;BME280;15675;52.870;-1.416;2023-07-30T04:55:20;100071.41;;;15.04;100.00
28448;BME280;15675;52.870;-1.416;2023-07-30T04:57:46;100078.22;;;15.08;100.00
28448;BME280;15675;52.870;-1.416;2023-07-30T05:00:12;100078.03;;;15.17;100.00
28448;BME280;15675;52.870;-1.416;2023-07-30T05:02:37;100072.25;;;15.04;100.00
28448;BME280;15675;52.870;-1.416;2023-07-30T05:05:03;100073.16;;;15.01;100.00
28448;BME280;15675;52.870;-1.416;2023-07-30T05:07:29;100079.84;;;15.13;100.00
28448;BME280;15675;52.870;-1.416;2023-07-30T05:09:55;100086.50;;;15.27;100.00
28448;BME280;15675;52.870;-1.416;2023-07-30T05:12:20;100082.28;;;15.21;100.00
28448;BME280;15675;52.870;-1.416;2023-07-30T05:14:46;100082.09;;;15.27;100.00
28448;BME280;15675;52.870;-1.416;2023-07-30T05:17:11;100082.22;;;15.23;100.00
28448;BME280;15675;52.870;-1.416;2023-07-30T05:19:37;100080.94;;;15.39;100.00
28448;BME280;15675;52.870;-1.416;2023-07-30T05:22:03;100076.41;;;15.46;100.00
28448;BME280;15675;52.870;-1.416;2023-07-30T05:24:30;100078.66;;;15.60;100.00
28448;BME280;15675;52.870;-1.416;2023-07-30T05:26:56;100083.84;;;15.61;100.00
28448;BME280;15675;52.870;-1.416;2023-07-30T05:29:21;100090.78;;;15.62;100.00
28448;BME280;15675;52.870;-1.416;2023-07-30T05:31:47;100091.81;;;15.90;100.00
28448;BME280;15675;52.870;-1.416;2023-07-30T05:34:13;100093.84;;;15.78;100.00
28448;BME280;15675;52.870;-1.416;2023-07-30T05:36:39;100097.38;;;16.09;100.00
28448;BME280;15675;52.870;-1.416;2023-07-30T05:39:04;100097.31;;;16.10;100.00
28448;BME280;15675;52.870;-1.416;2023-07-30T05:41:30;100098.09;;;16.14;100.00
28448;BME280;15675;52.870;-1.416;2023-07-30T05:43:55;100106.59;;;16.22;100.00
28448;BME280;15675;52.870;-1.416;2023-07-30T05:46:21;100112.78;;;15.88;100.00
28448;BME280;15675;52.870;-1.416;2023-07-30T05:48:47;100108.16;;;16.58;100.00
28448;BME280;15675;52.870;-1.416;2023-07-30T05:51:12;100092.63;;;16.51;100.00
28448;BME280;15675;52.870;-1.416;2023-07-30T05:53:38;100091.00;;;16.76;100.00
28448;BME280;15675;52.870;-1.416;2023-07-30T05:56:04;100105.72;;;16.80;100.00
28448;BME280;15675;52.870;-1.416;2023-07-30T05:58:30;100102.94;;;16.84;100.00
28448;BME280;15675;52.870;-1.416;2023-07-30T06:00:56;100110.75;;;16.86;100.00
28448;BME280;15675;52.870;-1.416;2023-07-30T06:03:22;100096.75;;;17.15;100.00
28448;BME280;15675;52.870;-1.416;2023-07-30T06:05:47;100099.97;;;17.23;100.00
28448;BME280;15675;52.870;-1.416;2023-07-30T06:08:13;100092.38;;;17.14;100.00
28448;BME280;15675;52.870;-1.416;2023-07-30T06:10:41;100100.06;;;17.20;100.00
28448;BME280;15675;52.870;-1.416;2023-07-30T06:13:06;100110.41;;;16.98;100.00
28448;BME280;15675;52.870;-1.416;2023-07-30T06:15:33;100100.50;;;17.33;100.00
28448;BME280;15675;52.870;-1.416;2023-07-30T06:17:58;100101.84;;;17.45;100.00
28448;BME280;15675;52.870;-1.416;2023-07-30T06:20:24;100101.97;;;17.42;100.00
28448;BME280;15675;52.870;-1.416;2023-07-30T06:22:50;100097.09;;;17.56;100.00
28448;BME280;15675;52.870;-1.416;2023-07-30T06:25:15;100106.88;;;17.51;100.00
28448;BME280;15675;52.870;-1.416;2023-07-30T06:27:41;100112.06;;;17.78;100.00
28448;BME280;15675;52.870;-1.416;2023-07-30T06:30:09;100102.00;;;17.66;100.00
28448;BME280;15675;52.870;-1.416;2023-07-30T06:32:35;100112.53;;;17.89;99.64
28448;BME280;15675;52.870;-1.416;2023-07-30T06:35:00;100108.53;;;18.04;96.14
28448;BME280;15675;52.870;-1.416;2023-07-30T06:37:26;100121.53;;;18.55;94.81
28448;BME280;15675;52.870;-1.416;2023-07-30T06:39:51;100117.16;;;18.32;91.71
28448;BME280;15675;52.870;-1.416;2023-07-30T06:42:17;100128.69;;;17.79;93.25
28448;BME280;15675;52.870;-1.416;2023-07-30T06:44:42;100130.00;;;18.16;92.57
28448;BME280;15675;52.870;-1.416;2023-07-30T06:47:08;100129.03;;;17.94;92.71
28448;BME280;15675;52.870;-1.416;2023-07-30T06:49:33;100127.44;;;17.89;92.20
28448;BME280;15675;52.870;-1.416;2023-07-30T06:51:59;100139.56;;;18.17;92.10
28448;BME280;15675;52.870;-1.416;2023-07-30T06:54:25;100129.91;;;17.43;92.54
28448;BME280;15675;52.870;-1.416;2023-07-30T06:56:50;100135.50;;;17.84;93.19
28448;BME280;15675;52.870;-1.416;2023-07-30T06:59:16;100136.59;;;18.02;92.03
28448;BME280;15675;52.870;-1.416;2023-07-30T07:01:41;100136.28;;;18.11;90.34
28448;BME280;15675;52.870;-1.416;2023-07-30T07:04:07;100141.22;;;17.70;92.88
28448;BME280;15675;52.870;-1.416;2023-07-30T07:06:33;100129.03;;;17.42;93.81
28448;BME280;15675;52.870;-1.416;2023-07-30T07:08:59;100130.44;;;17.53;93.77
28448;BME280;15675;52.870;-1.416;2023-07-30T07:11:24;100137.03;;;17.65;93.97
28448;BME280;15675;52.870;-1.416;2023-07-30T07:13:50;100131.03;;;17.61;94.41
28448;BME280;15675;52.870;-1.416;2023-07-30T07:16:15;100132.94;;;17.81;93.29
28448;BME280;15675;52.870;-1.416;2023-07-30T07:18:41;100139.19;;;18.04;92.08
28448;BME280;15675;52.870;-1.416;2023-07-30T07:21:07;100140.88;;;17.80;91.21
28448;BME280;15675;52.870;-1.416;2023-07-30T07:23:33;100158.22;;;17.58;91.77
28448;BME280;15675;52.870;-1.416;2023-07-30T07:25:58;100157.09;;;17.40;94.84
28448;BME280;15675;52.870;-1.416;2023-07-30T07:28:24;100141.63;;;18.08;93.39
28448;BME280;15675;52.870;-1.416;2023-07-30T07:30:50;100144.44;;;18.04;90.90
28448;BME280;15675;52.870;-1.416;2023-07-30T07:33:16;100166.69;;;17.67;92.60
28448;BME280;15675;52.870;-1.416;2023-07-30T07:35:41;100166.75;;;17.65;92.01
28448;BME280;15675;52.870;-1.416;2023-07-30T07:38:07;100170.50;;;17.83;94.18
28448;BME280;15675;52.870;-1.416;2023-07-30T07:40:39;100174.56;;;17.67;95.73
28448;BME280;15675;52.870;-1.416;2023-07-30T07:43:08;100162.69;;;18.07;92.80
28448;BME280;15675;52.870;-1.416;2023-07-30T07:45:34;100162.22;;;17.96;90.96
28448;BME280;15675;52.870;-1.416;2023-07-30T07:48:00;100169.63;;;17.84;90.34
28448;BME280;15675;52.870;-1.416;2023-07-30T07:50:26;100173.31;;;18.04;89.67
28448;BME280;15675;52.870;-1.416;2023-07-30T07:52:51;100183.38;;;18.16;89.33
28448;BME280;15675;52.870;-1.416;2023-07-30T07:55:17;100167.13;;;17.80;89.45
28448;BME280;15675;52.870;-1.416;2023-07-30T07:57:42;100190.13;;;17.73;90.03
28448;BME280;15675;52.870;-1.416;2023-07-30T08:00:08;100175.94;;;17.79;91.00
28448;BME280;15675;52.870;-1.416;2023-07-30T08:02:35;100175.28;;;18.46;89.39
28448;BME280;15675;52.870;-1.416;2023-07-30T08:05:00;100179.66;;;18.22;88.67
28448;BME280;15675;52.870;-1.416;2023-07-30T08:07:26;100178.19;;;18.15;87.61
28448;BME280;15675;52.870;-1.416;2023-07-30T08:09:51;100194.28;;;18.29;85.82
28448;BME280;15675;52.870;-1.416;2023-07-30T08:12:19;100188.22;;;18.27;86.47
28448;BME280;15675;52.870;-1.416;2023-07-30T08:14:44;100193.63;;;17.99;85.82
28448;BME280;15675;52.870;-1.416;2023-07-30T08:17:10;100191.50;;;18.57;86.54
28448;BME280;15675;52.870;-1.416;2023-07-30T08:19:35;100190.22;;;18.44;82.90
28448;BME280;15675;52.870;-1.416;2023-07-30T08:22:01;100179.25;;;18.56;83.42
28448;BME280;15675;52.870;-1.416;2023-07-30T08:24:26;100179.78;;;18.90;81.13
28448;BME280;15675;52.870;-1.416;2023-07-30T08:26:52;100184.06;;;18.69;81.02
28448;BME280;15675;52.870;-1.416;2023-07-30T08:29:17;100165.63;;;18.92;80.27
28448;BME280;15675;52.870;-1.416;2023-07-30T08:31:43;100169.84;;;18.74;80.52
28448;BME280;15675;52.870;-1.416;2023-07-30T08:34:08;100183.25;;;18.90;79.51
28448;BME280;15675;52.870;-1.416;2023-07-30T08:36:34;100189.09;;;18.51;81.06
28448;BME280;15675;52.870;-1.416;2023-07-30T08:39:01;100186.69;;;18.69;82.79
28448;BME280;15675;52.870;-1.416;2023-07-30T08:41:27;100196.56;;;18.62;82.81
28448;BME280;15675;52.870;-1.416;2023-07-30T08:43:53;100199.84;;;18.45;83.13
28448;BME280;15675;52.870;-1.416;2023-07-30T08:46:18;100187.50;;;18.47;84.17
28448;BME280;15675;52.870;-1.416;2023-07-30T08:48:44;100191.50;;;18.08;84.23
28448;BME280;15675;52.870;-1.416;2023-07-30T08:51:11;100206.88;;;18.44;86.97
28448;BME280;15675;52.870;-1.416;2023-07-30T08:53:38;100208.78;;;18.39;86.38
28448;BME280;15675;52.870;-1.416;2023-07-30T08:56:05;100208.81;;;19.09;86.51
28448;BME280;15675;52.870;-1.416;2023-07-30T08:58:32;100196.72;;;19.27;81.50
28448;BME280;15675;52.870;-1.416;2023-07-30T09:00:59;100200.31;;;19.24;80.79
28448;BME280;15675;52.870;-1.416;2023-07-30T09:03:27;100201.84;;;18.62;80.57
28448;BME280;15675;52.870;-1.416;2023-07-30T09:05:53;100195.19;;;18.75;81.26
28448;BME280;15675;52.870;-1.416;2023-07-30T09:08:20;100200.72;;;18.45;80.94
28448;BME280;15675;52.870;-1.416;2023-07-30T09:10:48;100201.31;;;18.76;79.98
28448;BME280;15675;52.870;-1.416;2023-07-30T09:13:21;100215.53;;;18.70;82.11
28448;BME280;15675;52.870;-1.416;2023-07-30T09:15:48;100186.84;;;18.88;80.06
28448;BME280;15675;52.870;-1.416;2023-07-30T09:18:16;100199.72;;;18.95;80.17
28448;BME280;15675;52.870;-1.416;2023-07-30T09:20:42;100200.25;;;19.26;78.92
28448;BME280;15675;52.870;-1.416;2023-07-30T09:23:09;100206.91;;;18.90;78.48
28448;BME280;15675;52.870;-1.416;2023-07-30T09:25:35;100196.56;;;18.62;77.37
28448;BME280;15675;52.870;-1.416;2023-07-30T09:28:01;100209.91;;;18.57;77.45
28448;BME280;15675;52.870;-1.416;2023-07-30T09:30:27;100208.78;;;18.87;77.42
28448;BME280;15675;52.870;-1.416;2023-07-30T09:32:54;100218.78;;;19.01;76.58
28448;BME280;15675;52.870;-1.416;2023-07-30T09:35:21;100217.41;;;18.67;75.82
28448;BME280;15675;52.870;-1.416;2023-07-30T09:37:47;100224.16;;;18.74;75.73
28448;BME280;15675;52.870;-1.416;2023-07-30T09:40:15;100221.31;;;18.80;76.17
28448;BME280;15675;52.870;-1.416;2023-07-30T09:42:46;100229.13;;;18.82;76.38
28448;BME280;15675;52.870;-1.416;2023-07-30T09:45:36;100226.38;;;19.08;76.50
28448;BME280;15675;52.870;-1.416;2023-07-30T09:48:03;100224.22;;;18.96;75.06
28448;BME280;15675;52.870;-1.416;2023-07-30T09:50:30;100222.50;;;18.95;76.07
28448;BME280;15675;52.870;-1.416;2023-07-30T09:52:58;100229.91;;;19.29;75.45
28448;BME280;15675;52.870;-1.416;2023-07-30T09:55:24;100222.56;;;19.60;74.53
28448;BME280;15675;52.870;-1.416;2023-07-30T09:57:49;100229.06;;;19.72;73.93
28448;BME280;15675;52.870;-1.416;2023-07-30T10:00:15;100231.78;;;19.70;73.35
28448;BME280;15675;52.870;-1.416;2023-07-30T10:02:45;100233.44;;;19.51;73.97
28448;BME280;15675;52.870;-1.416;2023-07-30T10:05:14;100241.59;;;19.44;74.28
28448;BME280;15675;52.870;-1.416;2023-07-30T10:07:55;100235.25;;;19.28;75.26
28448;BME280;15675;52.870;-1.416;2023-07-30T10:10:24;100238.91;;;19.24;76.52
28448;BME280;15675;52.870;-1.416;2023-07-30T10:12:51;100248.84;;;19.17;77.57
28448;BME280;15675;52.870;-1.416;2023-07-30T10:15:20;100252.97;;;19.45;77.59
28448;BME280;15675;52.870;-1.416;2023-07-30T10:17:50;100243.13;;;19.50;77.07
28448;BME280;15675;52.870;-1.416;2023-07-30T10:20:23;100253.41;;;19.56;77.61
28448;BME280;15675;52.870;-1.416;2023-07-30T10:22:57;100261.25;;;19.36;81.49
28448;BME280;15675;52.870;-1.416;2023-07-30T10:25:42;100263.94;;;19.12;81.76
28448;BME280;15675;52.870;-1.416;2023-07-30T10:28:08;100251.56;;;18.92;82.66
28448;BME280;15675;52.870;-1.416;2023-07-30T10:30:34;100264.84;;;18.63;89.72
28448;BME280;15675;52.870;-1.416;2023-07-30T10:33:04;100254.38;;;18.38;91.93
28448;BME280;15675;52.870;-1.416;2023-07-30T10:38:15;100255.13;;;19.35;90.32
28448;BME280;15675;52.870;-1.416;2023-07-30T10:40:41;100254.31;;;19.55;88.93
28448;BME280;15675;52.870;-1.416;2023-07-30T10:43:16;100240.00;;;19.62;84.66
28448;BME280;15675;52.870;-1.416;2023-07-30T10:45:52;100237.41;;;19.83;84.71
28448;BME280;15675;52.870;-1.416;2023-07-30T10:48:17;100231.22;;;19.84;82.92
28448;BME280;15675;52.870;-1.416;2023-07-30T10:50:43;100238.50;;;19.77;79.96
28448;BME280;15675;52.870;-1.416;2023-07-30T10:53:14;100232.81;;;20.09;81.21
28448;BME280;15675;52.870;-1.416;2023-07-30T10:55:42;100240.81;;;20.66;78.94
28448;BME280;15675;52.870;-1.416;2023-07-30T10:58:07;100238.69;;;20.93;75.02
28448;BME280;15675;52.870;-1.416;2023-07-30T11:00:33;100239.97;;;20.84;74.31
28448;BME280;15675;52.870;-1.416;2023-07-30T11:02:58;100237.34;;;21.03;74.62
28448;BME280;15675;52.870;-1.416;2023-07-30T11:05:24;100232.06;;;21.03;70.67
28448;BME280;15675;52.870;-1.416;2023-07-30T11:07:51;100239.00;;;20.87;70.68
28448;BME280;15675;52.870;-1.416;2023-07-30T11:10:17;100236.63;;;21.00;69.36
28448;BME280;15675;52.870;-1.416;2023-07-30T11:12:42;100230.75;;;20.55;67.65
28448;BME280;15675;52.870;-1.416;2023-07-30T11:15:09;100226.72;;;20.27;66.28
28448;BME280;15675;52.870;-1.416;2023-07-30T11:17:35;100227.25;;;20.75;67.67
28448;BME280;15675;52.870;-1.416;2023-07-30T11:20:01;100226.81;;;20.45;65.34
28448;BME280;15675;52.870;-1.416;2023-07-30T11:22:31;100234.63;;;20.86;65.95
28448;BME280;15675;52.870;-1.416;2023-07-30T11:24:57;100220.03;;;20.98;63.77
28448;BME280;15675;52.870;-1.416;2023-07-30T11:27:23;100220.81;;;20.81;62.80
28448;BME280;15675;52.870;-1.416;2023-07-30T11:29:56;100223.94;;;20.89;61.34
28448;BME280;15675;52.870;-1.416;2023-07-30T11:32:22;100224.00;;;20.49;61.54
28448;BME280;15675;52.870;-1.416;2023-07-30T11:34:53;100230.28;;;20.26;61.78
28448;BME280;15675;52.870;-1.416;2023-07-30T11:37:20;100227.06;;;19.99;62.06
28448;BME280;15675;52.870;-1.416;2023-07-30T11:39:47;100254.22;;;20.01;63.07
28448;BME280;15675;52.870;-1.416;2023-07-30T11:42:14;100235.00;;;19.77;64.16
28448;BME280;15675;52.870;-1.416;2023-07-30T11:44:39;100223.66;;;19.97;63.76
28448;BME280;15675;52.870;-1.416;2023-07-30T11:47:08;100225.97;;;20.63;64.13
28448;BME280;15675;52.870;-1.416;2023-07-30T11:49:36;100239.81;;;20.49;63.60
28448;BME280;15675;52.870;-1.416;2023-07-30T11:52:05;100239.13;;;20.05;64.48
28448;BME280;15675;52.870;-1.416;2023-07-30T11:54:31;100251.16;;;20.10;65.16
28448;BME280;15675;52.870;-1.416;2023-07-30T11:56:58;100247.34;;;20.57;65.70
28448;BME280;15675;52.870;-1.416;2023-07-30T11:59:23;100254.13;;;20.63;65.48
28448;BME280;15675;52.870;-1.416;2023-07-30T12:01:49;100259.94;;;20.71;66.16
28448;BME280;15675;52.870;-1.416;2023-07-30T12:04:14;100261.59;;;20.53;66.52
28448;BME280;15675;52.870;-1.416;2023-07-30T12:06:45;100253.75;;;20.51;66.22
28448;BME280;15675;52.870;-1.416;2023-07-30T12:09:15;100256.03;;;20.59;67.70
28448;BME280;15675;52.870;-1.416;2023-07-30T12:14:10;100252.31;;;20.44;64.66
28448;BME280;15675;52.870;-1.416;2023-07-30T12:16:35;100245.88;;;20.71;63.86
28448;BME280;15675;52.870;-1.416;2023-07-30T12:19:01;100253.06;;;21.24;64.19
28448;BME280;15675;52.870;-1.416;2023-07-30T12:21:26;100265.28;;;21.08;62.86
28448;BME280;15675;52.870;-1.416;2023-07-30T12:23:52;100253.59;;;20.94;63.03
28448;BME280;15675;52.870;-1.416;2023-07-30T12:26:17;100257.16;;;20.93;62.84
28448;BME280;15675;52.870;-1.416;2023-07-30T12:28:43;100250.84;;;20.58;62.32
28448;BME280;15675;52.870;-1.416;2023-07-30T12:31:08;100262.88;;;20.63;62.96
28448;BME280;15675;52.870;-1.416;2023-07-30T12:33:34;100258.88;;;20.75;63.28
28448;BME280;15675;52.870;-1.416;2023-07-30T12:36:00;100267.50;;;21.17;63.84